createdAt,value
2018-12-04T00:01:36.461Z,42.30
2018-12-04T00:04:05.041Z,44.57
2018-12-04T00:06:33.550Z,43.50
2018-12-04T00:09:02.037Z,38.23
2018-12-04T00:11:30.516Z,38.43
2018-12-04T00:13:59.108Z,72.03
2018-12-04T00:16:27.620Z,42.17
2018-12-04T00:18:56.105Z,36.97
2018-12-04T00:21:24.693Z,37.17
2018-12-04T00:23:53.811Z,36.40
2018-12-04T00:26:22.292Z,36.10
2018-12-04T00:28:50.783Z,31.83
2018-12-04T00:31:19.280Z,32.17
2018-12-04T00:33:47.764Z,68.17
2018-12-04T00:36:16.236Z,47.20
2018-12-04T00:38:44.737Z,33.53
2018-12-04T00:41:13.228Z,32.37
2018-12-04T00:43:41.708Z,35.17
2018-12-04T00:46:10.199Z,31.07
2018-12-04T00:48:38.712Z,37.00
2018-12-04T00:51:07.180Z,38.00
2018-12-04T00:53:35.659Z,36.33
2018-12-04T00:56:04.124Z,81.20
2018-12-04T00:58:32.643Z,47.00
2018-12-04T01:01:01.135Z,41.10
2018-12-04T01:03:29.619Z,36.73
2018-12-04T01:05:58.179Z,37.63
2018-12-04T01:08:26.673Z,34.93
2018-12-04T01:10:55.143Z,33.77
2018-12-04T01:13:23.678Z,56.23
2018-12-04T01:15:52.155Z,63.30
2018-12-04T01:18:21.339Z,87.17
2018-12-04T01:20:49.844Z,94.53
2018-12-04T01:23:18.451Z,34.50
2018-12-04T01:25:46.923Z,36.20
2018-12-04T01:28:15.403Z,27.77
2018-12-04T01:30:43.855Z,29.93
2018-12-04T01:33:12.459Z,29.07
2018-12-04T01:35:40.922Z,27.57
2018-12-04T01:38:09.427Z,29.10
2018-12-04T01:40:37.903Z,42.93
2018-12-04T01:43:06.391Z,29.50
2018-12-04T01:45:34.878Z,54.00
2018-12-04T01:48:03.364Z,62.07
2018-12-04T01:50:31.838Z,31.93
2018-12-04T01:53:00.335Z,34.80
2018-12-04T01:55:28.826Z,32.57
2018-12-04T01:57:57.298Z,28.60
2018-12-04T02:00:26.410Z,30.87
2018-12-04T02:02:54.906Z,29.53
2018-12-04T02:05:24.282Z,29.67
2018-12-04T02:07:53.045Z,42.73
2018-12-04T02:10:21.514Z,57.07
2018-12-04T02:12:49.994Z,68.23
2018-12-04T02:15:18.478Z,37.77
2018-12-04T02:17:46.946Z,38.77
2018-12-04T02:20:15.442Z,37.40
2018-12-04T02:22:44.042Z,38.10
2018-12-04T02:25:12.642Z,34.77
2018-12-04T02:27:41.097Z,31.70
2018-12-04T02:30:09.766Z,29.70
2018-12-04T02:32:38.247Z,42.97
2018-12-04T02:35:06.722Z,67.50
2018-12-04T02:37:35.197Z,48.03
2018-12-04T02:40:04.550Z,57.70
2018-12-04T02:42:33.038Z,41.90
2018-12-04T02:45:01.575Z,35.60
2018-12-04T02:47:33.621Z,47.60
2018-12-04T02:50:02.102Z,36.13
2018-12-04T02:52:30.597Z,40.63
2018-12-04T02:54:59.066Z,25.40
2018-12-04T02:57:27.537Z,24.20
2018-12-04T02:59:56.018Z,25.63
2018-12-04T03:02:24.538Z,24.67
2018-12-04T03:04:53.095Z,24.17
2018-12-04T03:07:21.569Z,24.10
2018-12-04T03:09:50.065Z,26.93
2018-12-04T03:12:18.686Z,25.13
2018-12-04T03:14:47.202Z,24.30
2018-12-04T03:17:15.977Z,26.43
2018-12-04T03:19:44.450Z,24.70
2018-12-04T03:22:12.944Z,23.20
2018-12-04T03:24:41.433Z,24.33
2018-12-04T03:27:09.913Z,26.23
2018-12-04T03:29:38.426Z,34.17
2018-12-04T03:32:06.911Z,29.93
2018-12-04T03:34:35.505Z,225.80
2018-12-04T03:37:04.009Z,577.17
2018-12-04T03:39:32.493Z,375.37
2018-12-04T03:42:00.993Z,217.07
2018-12-04T03:44:29.510Z,396.83
2018-12-04T03:46:58.000Z,345.10
2018-12-04T03:49:26.773Z,192.53
2018-12-04T03:51:55.277Z,46.43
2018-12-04T03:54:23.767Z,154.00
2018-12-04T03:56:52.265Z,228.77
2018-12-04T03:59:21.053Z,89.43
2018-12-04T04:01:49.517Z,39.83
2018-12-04T04:04:17.997Z,41.03
2018-12-04T04:06:46.518Z,35.37
2018-12-04T04:09:15.022Z,43.77
2018-12-04T04:11:43.636Z,49.03
2018-12-04T04:14:12.138Z,38.50
2018-12-04T04:16:40.610Z,47.57
2018-12-04T04:19:09.113Z,32.80
2018-12-04T04:21:37.602Z,31.53
2018-12-04T04:24:06.289Z,156.63
2018-12-04T04:26:34.784Z,74.30
2018-12-04T04:29:03.285Z,82.67
2018-12-04T04:31:32.617Z,51.50
2018-12-04T04:34:01.109Z,54.90
2018-12-04T04:36:29.617Z,54.00
2018-12-04T04:38:58.141Z,46.77
2018-12-04T04:41:26.609Z,45.90
2018-12-04T04:43:55.095Z,31.30
2018-12-04T04:46:23.610Z,29.53
2018-12-04T04:51:13.737Z,37.33
2018-12-04T04:53:42.229Z,87.13
2018-12-04T04:56:10.813Z,30.10
2018-12-04T04:58:39.545Z,94.43
2018-12-04T05:01:08.053Z,99.33
2018-12-04T05:03:36.525Z,53.87
2018-12-04T05:06:05.038Z,34.20
2018-12-04T05:08:33.529Z,69.57
2018-12-04T05:11:02.009Z,50.27
2018-12-04T05:13:30.477Z,66.00
2018-12-04T05:15:58.993Z,36.47
2018-12-04T05:18:27.482Z,32.80
2018-12-04T05:20:55.957Z,35.03
2018-12-04T05:23:24.437Z,47.27
2018-12-04T05:25:52.920Z,42.27
2018-12-04T05:28:21.424Z,59.50
2018-12-04T05:30:49.893Z,41.67
2018-12-04T05:33:18.368Z,35.23
2018-12-04T05:35:46.868Z,32.50
2018-12-04T05:38:15.363Z,32.27
2018-12-04T05:40:43.956Z,85.63
2018-12-04T05:43:12.440Z,40.73
2018-12-04T05:45:40.907Z,32.60
2018-12-04T05:48:09.381Z,33.90
2018-12-04T05:50:37.855Z,44.63
2018-12-04T05:53:17.618Z,183.47
2018-12-04T05:55:46.112Z,87.50
2018-12-04T05:58:14.591Z,90.53
2018-12-04T06:00:43.087Z,45.23
2018-12-04T06:03:11.595Z,69.33
2018-12-04T06:05:40.151Z,47.80
2018-12-04T06:08:08.647Z,58.90
2018-12-04T06:10:37.123Z,48.20
2018-12-04T06:13:05.703Z,42.63
2018-12-04T06:15:34.183Z,35.77
2018-12-04T06:18:02.683Z,52.97
2018-12-04T06:20:31.167Z,38.43
2018-12-04T06:22:59.675Z,36.00
2018-12-04T06:25:28.151Z,46.63
2018-12-04T06:27:56.650Z,36.13
2018-12-04T06:30:25.266Z,30.97
2018-12-04T06:32:53.755Z,41.67
2018-12-04T06:35:22.574Z,36.37
2018-12-04T06:37:51.058Z,30.13
2018-12-04T06:40:19.534Z,39.93
2018-12-04T06:42:48.019Z,35.67
2018-12-04T06:45:16.593Z,31.70
2018-12-04T06:47:45.102Z,31.20
2018-12-04T06:50:13.706Z,39.27
2018-12-04T06:52:42.298Z,37.70
2018-12-04T06:55:10.774Z,34.87
2018-12-04T06:57:39.241Z,35.20
2018-12-04T07:00:08.326Z,36.20
2018-12-04T07:02:36.806Z,40.00
2018-12-04T07:05:06.038Z,33.70
2018-12-04T07:07:34.526Z,35.40
2018-12-04T07:10:03.242Z,34.47
2018-12-04T07:12:31.721Z,33.30
2018-12-04T07:15:00.230Z,50.37
2018-12-04T07:17:28.950Z,40.37
2018-12-04T07:19:57.438Z,31.93
2018-12-04T07:22:25.925Z,28.67
2018-12-04T07:24:54.438Z,25.80
2018-12-04T07:27:22.918Z,27.93
2018-12-04T07:29:51.386Z,26.93
2018-12-04T07:32:19.881Z,32.73
2018-12-04T07:34:48.390Z,28.90
2018-12-04T07:37:16.882Z,25.93
2018-12-04T07:39:45.349Z,30.67
2018-12-04T07:42:13.835Z,27.40
2018-12-04T07:44:42.317Z,28.23
2018-12-04T07:47:10.800Z,28.43
2018-12-04T07:49:39.404Z,28.70
2018-12-04T07:52:08.000Z,26.10
2018-12-04T07:54:36.465Z,28.23
2018-12-04T07:57:05.080Z,27.23
2018-12-04T07:59:33.585Z,25.43
2018-12-04T08:02:02.089Z,26.20
2018-12-04T08:04:30.573Z,27.30
2018-12-04T08:06:59.057Z,28.40
2018-12-04T08:09:27.533Z,27.33
2018-12-04T08:11:56.025Z,24.13
2018-12-04T08:14:24.500Z,23.87
2018-12-04T08:16:53.000Z,25.20
2018-12-04T08:19:21.588Z,21.00
2018-12-04T08:21:50.108Z,19.43
2018-12-04T08:24:18.593Z,19.10
2018-12-04T08:26:47.102Z,18.47
2018-12-04T08:29:15.727Z,16.67
2018-12-04T08:31:44.227Z,13.20
2018-12-04T08:34:12.715Z,12.60
2018-12-04T08:36:41.200Z,13.23
2018-12-04T08:39:13.064Z,9.73
2018-12-04T08:41:40.384Z,10.57
2018-12-04T08:44:08.889Z,9.60
2018-12-04T08:46:37.371Z,6.57
2018-12-04T08:49:05.867Z,4.93
2018-12-04T08:51:34.375Z,5.10
2018-12-04T08:54:02.979Z,3.47
2018-12-04T08:56:31.563Z,2.90
2018-12-04T08:59:00.046Z,3.83
2018-12-04T09:01:28.523Z,3.33
2018-12-04T09:03:59.334Z,2.93
2018-12-04T09:06:31.755Z,2.00
2018-12-04T09:09:00.243Z,2.10
2018-12-04T09:11:28.739Z,1.77
2018-12-04T09:13:57.203Z,1.70
2018-12-04T09:16:25.695Z,1.90
2018-12-04T09:18:54.210Z,1.80
2018-12-04T09:21:22.921Z,1.53
2018-12-04T09:23:51.412Z,2.00
2018-12-04T09:26:20.012Z,1.77
2018-12-04T09:28:48.614Z,2.13
2018-12-04T09:31:17.466Z,2.00
2018-12-04T09:33:45.924Z,1.83
2018-12-04T09:36:14.543Z,2.30
2018-12-04T09:38:43.006Z,2.83
2018-12-04T09:41:11.484Z,2.40
2018-12-04T09:43:39.979Z,1.93
2018-12-04T09:46:08.459Z,1.60
2018-12-04T09:48:36.928Z,2.27
2018-12-04T09:51:05.623Z,2.10
2018-12-04T09:53:34.114Z,2.00
2018-12-04T09:56:02.590Z,1.57
2018-12-04T09:58:31.156Z,2.00
2018-12-04T10:00:59.662Z,2.20
2018-12-04T10:03:28.150Z,2.40
2018-12-04T10:05:56.653Z,2.40
2018-12-04T10:08:25.464Z,2.33
2018-12-04T10:10:53.926Z,2.40
2018-12-04T10:13:22.521Z,2.10
2018-12-04T10:15:50.998Z,1.90
2018-12-04T10:18:19.476Z,1.90
2018-12-04T10:20:48.069Z,2.00
2018-12-04T10:23:16.614Z,5.33
2018-12-04T10:25:49.841Z,2.07
2018-12-04T10:28:19.153Z,6.53
2018-12-04T10:30:53.185Z,5.47
2018-12-04T10:33:21.701Z,5.23
2018-12-04T10:35:50.193Z,2.83
2018-12-04T10:38:18.689Z,5.33
2018-12-04T10:40:47.176Z,9.00
2018-12-04T10:43:15.665Z,7.30
2018-12-04T10:45:44.157Z,7.13
2018-12-04T10:48:12.637Z,3.90
2018-12-04T10:50:41.116Z,4.37
2018-12-04T10:53:09.608Z,3.00
2018-12-04T10:55:38.121Z,3.33
2018-12-04T10:58:06.600Z,3.83
2018-12-04T11:00:41.316Z,1.87
2018-12-04T11:03:13.780Z,1.80
2018-12-04T11:05:43.034Z,3.83
2018-12-04T11:08:11.545Z,2.43
2018-12-04T11:10:40.034Z,2.13
2018-12-04T11:13:08.488Z,2.70
2018-12-04T11:15:36.980Z,2.10
2018-12-04T11:18:05.600Z,2.80
2018-12-04T11:20:34.100Z,3.70
2018-12-04T11:23:02.597Z,3.87
2018-12-04T11:25:31.092Z,4.67
2018-12-04T11:27:59.580Z,3.47
2018-12-04T11:30:28.060Z,5.07
2018-12-04T11:32:56.568Z,4.70
2018-12-04T11:35:25.064Z,4.73
2018-12-04T11:37:53.653Z,7.73
2018-12-04T11:40:22.152Z,4.30
2018-12-04T11:42:50.632Z,2.97
2018-12-04T11:45:19.100Z,3.00
2018-12-04T11:47:47.619Z,3.20
2018-12-04T11:50:16.180Z,2.43
2018-12-04T11:52:45.004Z,3.33
2018-12-04T11:55:13.584Z,2.43
2018-12-04T11:57:42.080Z,3.20
2018-12-04T12:00:19.136Z,2.30
2018-12-04T12:02:47.636Z,2.90
2018-12-04T12:05:16.112Z,2.47
2018-12-04T12:07:44.612Z,1.87
2018-12-04T12:10:13.205Z,2.47
2018-12-04T12:12:41.672Z,3.97
2018-12-04T12:15:10.159Z,2.20
2018-12-04T12:17:38.636Z,2.80
2018-12-04T12:20:08.180Z,1.80
2018-12-04T12:22:36.680Z,2.00
2018-12-04T12:25:05.808Z,2.20
2018-12-04T12:27:34.680Z,2.20
2018-12-04T12:30:04.392Z,2.40
2018-12-04T12:32:32.868Z,1.80
2018-12-04T12:35:01.368Z,2.40
2018-12-04T12:37:29.844Z,2.30
2018-12-04T12:39:58.343Z,2.00
2018-12-04T12:42:26.836Z,2.47
2018-12-04T12:44:55.331Z,2.13
2018-12-04T12:47:23.847Z,2.50
2018-12-04T12:49:52.339Z,2.50
2018-12-04T12:52:20.926Z,2.93
2018-12-04T12:54:49.410Z,5.23
2018-12-04T12:57:17.942Z,2.73
2018-12-04T12:59:46.430Z,3.67
2018-12-04T13:02:14.914Z,2.30
2018-12-04T13:04:43.394Z,2.50
2018-12-04T13:07:11.886Z,2.30
2018-12-04T13:09:40.377Z,2.47
2018-12-04T13:12:08.890Z,2.77
2018-12-04T13:14:37.463Z,3.13
2018-12-04T13:17:06.049Z,3.53
2018-12-04T13:19:34.643Z,3.13
2018-12-04T13:22:03.235Z,3.00
2018-12-04T13:24:31.731Z,3.20
2018-12-04T13:27:00.233Z,3.10
2018-12-04T13:29:28.752Z,3.07
2018-12-04T13:33:00.311Z,2.57
2018-12-04T13:35:28.836Z,2.83
2018-12-04T13:37:57.342Z,3.00
2018-12-04T13:40:26.037Z,4.37
2018-12-04T13:42:54.514Z,3.10
2018-12-04T13:45:23.047Z,5.23
2018-12-04T13:47:51.515Z,2.70
2018-12-04T13:50:20.002Z,2.87
2018-12-04T13:52:48.485Z,4.67
2018-12-04T13:55:16.979Z,3.50
2018-12-04T13:57:50.685Z,9.93
2018-12-04T14:00:15.980Z,5.83
2018-12-04T14:02:44.527Z,4.57
2018-12-04T14:05:13.005Z,11.43
2018-12-04T14:07:41.514Z,6.33
2018-12-04T14:10:10.550Z,5.57
2018-12-04T14:12:39.157Z,8.43
2018-12-04T14:15:07.977Z,5.27
2018-12-04T14:17:36.481Z,4.00
2018-12-04T14:20:06.973Z,4.50
2018-12-04T14:22:35.469Z,3.97
2018-12-04T14:25:04.229Z,4.50
2018-12-04T14:27:32.786Z,4.33
2018-12-04T14:30:01.502Z,4.30
2018-12-04T14:32:29.987Z,4.10
2018-12-04T14:34:58.477Z,3.80
2018-12-04T14:37:26.953Z,4.93
2018-12-04T14:39:55.425Z,3.37
2018-12-04T14:42:23.938Z,2.97
2018-12-04T14:44:52.450Z,3.03
2018-12-04T14:47:20.958Z,3.80
2018-12-04T14:49:49.451Z,3.03
2018-12-04T14:52:17.976Z,3.30
2018-12-04T14:54:46.564Z,3.10
2018-12-04T14:57:15.205Z,3.67
2018-12-04T14:59:43.804Z,4.30
2018-12-04T15:02:12.406Z,4.80
2018-12-04T15:04:41.011Z,6.93
2018-12-04T15:07:09.845Z,7.77
2018-12-04T15:09:38.336Z,7.37
2018-12-04T15:12:06.884Z,9.53
2018-12-04T15:14:35.424Z,9.97
2018-12-04T15:17:03.947Z,7.50
2018-12-04T15:19:32.561Z,8.23
2018-12-04T15:22:01.198Z,8.83
2018-12-04T15:24:29.823Z,5.77
2018-12-04T15:29:29.028Z,7.20
2018-12-04T15:31:57.542Z,8.80
2018-12-04T15:34:26.054Z,7.57
2018-12-04T15:36:56.668Z,6.10
2018-12-04T15:39:25.357Z,5.47
2018-12-04T15:41:54.961Z,6.90
2018-12-04T15:44:23.809Z,6.67
2018-12-04T15:46:52.297Z,6.40
2018-12-04T15:49:20.890Z,6.37
2018-12-04T15:51:49.361Z,7.07
2018-12-04T15:54:17.888Z,7.10
2018-12-04T15:56:46.491Z,8.70
2018-12-04T15:59:15.111Z,14.63
2018-12-04T16:01:43.609Z,10.90
2018-12-04T16:04:12.119Z,10.07
2018-12-04T16:06:40.652Z,10.73
2018-12-04T16:09:09.139Z,8.63
2018-12-04T16:11:37.647Z,8.30
2018-12-04T16:14:06.136Z,9.80
2018-12-04T16:16:34.644Z,12.00
2018-12-04T16:21:26.827Z,12.80
2018-12-04T16:23:55.355Z,11.53
2018-12-04T16:26:23.847Z,12.53
2018-12-04T16:28:52.330Z,11.47
2018-12-04T16:31:20.811Z,9.93
2018-12-04T16:33:49.287Z,9.30
2018-12-04T16:36:17.787Z,11.87
2018-12-04T16:38:46.259Z,9.70
2018-12-04T16:41:14.751Z,8.17
2018-12-04T16:43:43.227Z,7.93
2018-12-04T16:46:11.694Z,7.90
2018-12-04T16:48:40.299Z,7.87
2018-12-04T16:51:08.774Z,6.80
2018-12-04T16:53:37.272Z,6.37
2018-12-04T16:56:05.783Z,6.53
2018-12-04T16:58:34.379Z,9.37
2018-12-04T17:01:02.963Z,9.33
2018-12-04T17:03:31.485Z,8.07
2018-12-04T17:05:59.991Z,13.70
2018-12-04T17:08:28.475Z,20.13
2018-12-04T17:10:56.998Z,12.17
2018-12-04T17:13:25.486Z,9.93
2018-12-04T17:15:54.002Z,10.03
2018-12-04T17:18:22.479Z,8.60
2018-12-04T17:20:50.983Z,11.40
2018-12-04T17:23:19.510Z,8.03
2018-12-04T17:25:48.031Z,7.57
2018-12-04T17:28:16.687Z,6.47
2018-12-04T17:30:45.199Z,6.27
2018-12-04T17:33:13.894Z,6.50
2018-12-04T17:35:42.396Z,7.50
2018-12-04T17:38:10.866Z,8.30
2018-12-04T17:40:39.379Z,9.13
2018-12-04T17:43:08.038Z,8.90
2018-12-04T17:45:36.853Z,8.77
2018-12-04T17:48:05.345Z,9.00
2018-12-04T17:50:33.859Z,8.77
2018-12-04T17:53:02.318Z,10.83
2018-12-04T17:55:30.823Z,11.30
2018-12-04T17:57:59.398Z,10.13
2018-12-04T18:00:27.954Z,11.00
2018-12-04T18:02:56.494Z,9.83
2018-12-04T18:05:24.978Z,9.10
2018-12-04T18:07:53.502Z,10.03
2018-12-04T18:10:22.038Z,8.77
2018-12-04T18:12:50.523Z,13.43
2018-12-04T18:15:19.033Z,14.77
2018-12-04T18:17:47.584Z,9.67
2018-12-04T18:20:16.090Z,8.67
2018-12-04T18:22:44.699Z,6.37
2018-12-04T18:25:13.293Z,5.87
2018-12-04T18:27:41.774Z,6.97
2018-12-04T18:30:10.333Z,6.70
2018-12-04T18:32:38.831Z,4.63
2018-12-04T18:35:07.586Z,5.13
2018-12-04T18:37:36.286Z,4.23
2018-12-04T18:40:05.250Z,3.97
2018-12-04T18:42:33.758Z,3.80
2018-12-04T18:45:02.334Z,4.77
2018-12-04T18:47:30.830Z,6.13
2018-12-04T18:49:59.366Z,4.70
2018-12-04T18:52:27.998Z,5.90
2018-12-04T18:54:56.486Z,4.20
2018-12-04T18:57:24.986Z,5.10
2018-12-04T18:59:54.909Z,4.50
2018-12-04T19:02:23.461Z,5.00
2018-12-04T19:04:52.017Z,6.70
2018-12-04T19:07:20.516Z,4.47
2018-12-04T19:09:49.267Z,4.87
2018-12-04T19:12:17.785Z,6.30
2018-12-04T19:14:46.361Z,5.37
2018-12-04T19:17:14.877Z,5.27
2018-12-04T19:19:43.405Z,5.40
2018-12-04T19:22:11.925Z,5.00
2018-12-04T19:24:40.588Z,5.77
2018-12-04T19:27:09.377Z,9.90
2018-12-04T19:29:38.320Z,7.20
2018-12-04T19:32:06.840Z,7.17
2018-12-04T19:34:35.353Z,8.43
2018-12-04T19:37:03.916Z,7.37
2018-12-04T19:39:32.652Z,7.20
2018-12-04T19:42:01.191Z,7.90
2018-12-04T19:44:29.872Z,7.97
2018-12-04T19:46:58.376Z,7.27
2018-12-04T19:49:26.868Z,7.63
2018-12-04T19:51:55.545Z,8.63
2018-12-04T19:54:24.232Z,7.87
2018-12-04T19:56:53.036Z,7.67
2018-12-04T19:59:21.534Z,6.53
2018-12-04T20:01:50.028Z,8.40
2018-12-04T20:04:18.540Z,7.20
2018-12-04T20:06:47.028Z,6.93
2018-12-04T20:09:15.658Z,6.90
2018-12-04T20:11:44.126Z,5.70
2018-12-04T20:14:12.629Z,5.50
2018-12-04T20:16:41.127Z,5.97
2018-12-04T20:19:09.638Z,6.27
2018-12-04T20:21:38.125Z,6.77
2018-12-04T20:24:06.596Z,6.73
2018-12-04T20:26:35.333Z,6.77
2018-12-04T20:29:04.082Z,6.43
2018-12-04T20:31:32.672Z,6.23
2018-12-04T20:34:01.165Z,5.93
2018-12-04T20:36:29.649Z,6.40
2018-12-04T20:38:58.481Z,5.47
2018-12-04T20:41:26.977Z,6.67
2018-12-04T20:43:55.444Z,7.53
2018-12-04T20:46:23.972Z,5.57
2018-12-04T20:48:52.457Z,6.20
2018-12-04T20:51:20.940Z,6.37
2018-12-04T20:53:49.408Z,5.87
2018-12-04T20:56:17.909Z,6.30
2018-12-04T20:58:46.720Z,5.73
2018-12-04T21:01:15.566Z,5.77
2018-12-04T21:03:44.037Z,5.67
2018-12-04T21:06:12.512Z,5.73
2018-12-04T21:08:40.996Z,6.07
2018-12-04T21:11:09.504Z,5.50
2018-12-04T21:13:38.000Z,5.00
2018-12-04T21:16:06.500Z,4.90
2018-12-04T21:18:35.012Z,4.73
2018-12-04T21:21:03.620Z,5.10
2018-12-04T21:23:32.248Z,6.47
2018-12-04T21:26:00.740Z,4.70
2018-12-04T21:28:29.235Z,4.37
2018-12-04T21:31:03.012Z,4.43
2018-12-04T21:33:36.840Z,5.20
2018-12-04T21:36:10.748Z,5.97
2018-12-04T21:38:44.764Z,4.80
2018-12-04T21:41:18.668Z,4.10
2018-12-04T21:43:52.615Z,4.90
2018-12-04T21:46:26.509Z,6.00
2018-12-04T21:48:55.012Z,5.83
2018-12-04T21:51:23.484Z,7.17
2018-12-04T21:53:51.956Z,6.27
2018-12-04T21:56:20.452Z,7.10
2018-12-04T21:58:48.951Z,6.40
2018-12-04T22:01:17.436Z,5.13
2018-12-04T22:03:45.952Z,5.40
2018-12-04T22:06:14.527Z,6.20
2018-12-04T22:08:43.060Z,6.90
2018-12-04T22:11:11.543Z,5.70
2018-12-04T22:13:40.155Z,5.30
2018-12-04T22:16:08.720Z,5.03
2018-12-04T22:18:37.208Z,4.97
2018-12-04T22:21:05.708Z,5.23
2018-12-04T22:23:34.195Z,5.70
2018-12-04T22:26:02.668Z,4.73
2018-12-04T22:28:31.151Z,6.23
2018-12-04T22:30:59.599Z,5.07
2018-12-04T22:33:28.935Z,5.60
2018-12-04T22:35:57.709Z,4.67
2018-12-04T22:38:26.190Z,6.03
2018-12-04T22:40:54.643Z,6.07
2018-12-04T22:43:23.359Z,4.70
2018-12-04T22:45:51.810Z,5.17
2018-12-04T22:48:20.328Z,5.33
2018-12-04T22:50:48.867Z,4.83
2018-12-04T22:53:20.045Z,5.13
2018-12-04T22:55:48.522Z,5.30
2018-12-04T22:58:17.011Z,5.33
2018-12-04T23:00:47.411Z,5.37
2018-12-04T23:03:16.111Z,5.77
2018-12-04T23:05:44.574Z,5.03
2018-12-04T23:08:13.057Z,5.37
2018-12-04T23:10:41.527Z,4.60
2018-12-04T23:13:10.158Z,5.17
2018-12-04T23:15:38.631Z,5.07
2018-12-04T23:18:07.559Z,5.23
2018-12-04T23:23:35.318Z,5.80
2018-12-04T23:26:03.790Z,5.50
2018-12-04T23:28:32.342Z,5.50
2018-12-04T23:31:00.832Z,6.27
2018-12-04T23:33:29.310Z,5.67
2018-12-04T23:35:57.778Z,5.73
2018-12-04T23:38:26.244Z,5.80
2018-12-04T23:40:54.718Z,6.47
2018-12-04T23:43:23.454Z,6.20
2018-12-04T23:45:52.054Z,5.77
2018-12-04T23:48:20.530Z,5.67
2018-12-04T23:50:49.030Z,5.20
2018-12-04T23:53:17.530Z,5.30
2018-12-04T23:55:46.014Z,5.90
2018-12-04T23:58:14.520Z,6.57
